Time;durP1;ratioP1;P1;durP2;ratioP2;P2;SDS_P1;SDS_P2;PMS_P1;PMS_P2;Temp;Humidity;BMP_temperature;BMP_pressure;BME280_temperature;BME280_humidity;BME280_pressure;Samples;Min_cycle;Max_cycle;Signal;HPM_P1;HPM_P2
2021/11/11 00:00:33;;;;;;;15.23;9.93;;;;;;;-0.85;100.00;101576.56;6255927;28;20045;-71
2021/11/11 00:03:34;;;;;;;14.77;9.43;;;;;;;-0.83;100.00;101577.44;6291820;28;20041;-71
2021/11/11 00:06:35;;;;;;;12.23;8.93;;;;;;;-0.91;100.00;101581.63;6297426;28;20076;-71
2021/11/11 00:09:36;;;;;;;14.60;9.52;;;;;;;-0.93;100.00;101575.63;6297313;28;20045;-72
2021/11/11 00:12:37;;;;;;;14.57;9.95;;;;;;;-0.89;100.00;101579.94;6272341;28;20399;-70
2021/11/11 00:15:38;;;;;;;15.63;9.60;;;;;;;-0.86;100.00;101577.44;6273532;28;20045;-71
2021/11/11 00:18:39;;;;;;;13.65;9.35;;;;;;;-0.89;100.00;101573.09;6284711;28;20533;-70
2021/11/11 00:21:40;;;;;;;13.85;9.13;;;;;;;-0.84;100.00;101575.75;6279913;28;20082;-71
2021/11/11 00:24:40;;;;;;;15.32;9.43;;;;;;;-0.86;100.00;101575.72;6296848;28;20045;-71
2021/11/11 00:27:45;;;;;;;15.52;9.13;;;;;;;-0.87;100.00;101575.69;6296777;28;20052;-71
2021/11/11 00:30:45;;;;;;;12.63;8.68;;;;;;;-0.83;100.00;101572.31;6276632;28;20078;-70
2021/11/11 00:33:47;;;;;;;12.52;8.80;;;;;;;-0.85;100.00;101564.59;6255381;28;20048;-70
2021/11/11 00:36:48;;;;;;;11.15;7.93;;;;;;;-0.84;100.00;101560.38;6255666;28;20057;-70
2021/11/11 00:39:50;;;;;;;15.85;9.38;;;;;;;-0.97;100.00;101561.06;6284230;28;21078;-71
2021/11/11 00:42:51;;;;;;;16.05;10.18;;;;;;;-1.02;100.00;101543.94;6296404;28;20043;-70
2021/11/11 00:45:51;;;;;;;16.27;9.50;;;;;;;-0.96;100.00;101561.09;6297675;28;20049;-70
2021/11/11 00:48:52;;;;;;;16.83;9.77;;;;;;;-0.96;100.00;101558.53;6296927;28;20048;-70
2021/11/11 00:51:53;;;;;;;17.40;10.77;;;;;;;-0.99;100.00;101555.06;6297421;28;20060;-70
2021/11/11 00:54:54;;;;;;;17.73;9.85;;;;;;;-0.99;100.00;101552.50;6279622;28;20064;-70
2021/11/11 00:57:54;;;;;;;17.80;10.50;;;;;;;-1.10;100.00;101544.72;6296348;28;20048;-70
2021/11/11 01:00:55;;;;;;;20.35;11.82;;;;;;;-1.10;100.00;101539.59;6279347;28;20391;-70
2021/11/11 01:03:57;;;;;;;22.55;12.20;;;;;;;-1.20;100.00;101528.38;6286077;28;20045;-70
2021/11/11 01:06:58;;;;;;;21.20;12.70;;;;;;;-1.28;100.00;101532.53;6272527;28;20044;-70
2021/11/11 01:09:59;;;;;;;21.70;12.27;;;;;;;-1.23;100.00;101524.09;6272562;28;20049;-70
2021/11/11 01:13:00;;;;;;;20.90;12.57;;;;;;;-1.30;100.00;101527.41;6272410;28;20041;-70
2021/11/11 01:16:02;;;;;;;19.33;12.27;;;;;;;-1.24;100.00;101518.94;6271128;28;20460;-70
2021/11/11 01:19:02;;;;;;;23.08;12.15;;;;;;;-1.26;100.00;101521.47;6271102;28;20045;-70
2021/11/11 01:22:04;;;;;;;23.88;12.40;;;;;;;-1.18;100.00;101526.69;6254373;28;20087;-71
2021/11/11 01:25:08;;;;;;;22.57;12.23;;;;;;;-1.17;100.00;101518.16;6272049;28;20128;-70
2021/11/11 01:28:09;;;;;;;56.00;12.63;;;;;;;-1.27;100.00;101519.78;6254641;28;20073;-70
2021/11/11 01:31:10;;;;;;;27.25;11.80;;;;;;;-1.32;100.00;101510.31;6271977;28;20103;-70
2021/11/11 01:34:11;;;;;;;25.13;12.10;;;;;;;-1.32;100.00;101518.88;6270645;28;20549;-70
2021/11/11 01:37:12;;;;;;;21.85;12.27;;;;;;;-1.30;100.00;101511.19;6272026;28;20118;-70
2021/11/11 01:40:15;;;;;;;30.42;12.27;;;;;;;-1.36;100.00;101519.69;6289785;28;20085;-71
2021/11/11 01:43:16;;;;;;;23.33;11.50;;;;;;;-1.39;100.00;101513.66;6296803;28;20044;-71
2021/11/11 01:46:17;;;;;;;36.22;13.00;;;;;;;-1.50;100.00;101505.84;6295457;28;20044;-70
2021/11/11 01:49:18;;;;;;;20.98;11.70;;;;;;;-1.50;100.00;101514.38;6296656;28;20124;-70
2021/11/11 01:52:19;;;;;;;18.70;11.05;;;;;;;-1.46;100.00;101502.50;6295140;28;20103;-70
2021/11/11 01:55:21;;;;;;;25.88;12.32;;;;;;;-1.38;100.00;101502.56;6294705;28;20044;-70
2021/11/11 01:58:22;;;;;;;22.00;12.75;;;;;;;-1.45;100.00;101499.94;6277877;28;20059;-71
2021/11/11 02:01:23;;;;;;;21.20;12.40;;;;;;;-0.87;100.00;101498.81;6294666;28;20048;-71
2021/11/11 02:04:24;;;;;;;21.67;12.80;;;;;;;-0.24;100.00;101501.88;6295119;28;20040;-71
2021/11/11 02:07:25;;;;;;;21.90;12.25;;;;;;;-0.13;100.00;101500.22;6295058;28;20063;-71
2021/11/11 02:10:28;;;;;;;25.52;12.73;;;;;;;-0.12;100.00;101501.97;6295213;28;20056;-70
2021/11/11 02:13:29;;;;;;;19.05;11.23;;;;;;;-0.07;100.00;101499.41;6295069;28;20044;-70
2021/11/11 02:16:29;;;;;;;20.05;11.68;;;;;;;-0.09;100.00;101503.69;6278438;28;20046;-70
2021/11/11 02:19:31;;;;;;;18.60;11.18;;;;;;;-0.22;100.00;101495.91;6296370;28;20483;-71
2021/11/11 02:22:32;;;;;;;21.38;11.82;;;;;;;-0.49;100.00;101490.59;6278512;28;20041;-71
2021/11/11 02:25:33;;;;;;;21.77;11.73;;;;;;;-1.74;100.00;101486.78;6278281;28;20052;-70
2021/11/11 02:28:35;;;;;;;17.67;10.40;;;;;;;-1.93;100.00;101487.41;6296094;28;20040;-71
2021/11/11 02:31:36;;;;;;;20.60;11.52;;;;;;;-2.02;100.00;101475.31;6262042;28;20045;-70
2021/11/11 02:34:37;;;;;;;29.33;11.85;;;;;;;-2.11;100.00;101482.88;6294686;28;20154;-70
2021/11/11 02:37:42;;;;;;;21.05;11.27;;;;;;;-1.97;100.00;101483.94;6296235;28;20066;-70
2021/11/11 02:40:44;;;;;;;21.27;11.32;;;;;;;-0.88;100.00;101469.78;6296104;28;20052;-70
2021/11/11 02:43:45;;;;;;;30.77;10.43;;;;;;;-0.88;100.00;101479.16;6298458;28;20079;-71
2021/11/11 02:46:45;;;;;;;20.80;11.80;;;;;;;-0.89;100.00;101469.75;6299388;28;20387;-70
2021/11/11 02:49:46;;;;;;;20.67;11.52;;;;;;;-0.78;100.00;101459.56;6300493;28;20127;-70
2021/11/11 02:52:50;;;;;;;23.15;13.02;;;;;;;-0.49;100.00;101462.38;6299043;28;20052;-70
2021/11/11 02:55:51;;;;;;;22.27;12.07;;;;;;;-0.41;100.00;101468.44;6298895;28;20376;-71
2021/11/11 02:58:51;;;;;;;30.10;12.10;;;;;;;-0.42;100.00;101462.41;6299262;28;20040;-71
2021/11/11 03:01:52;;;;;;;28.80;13.00;;;;;;;-0.29;100.00;101463.38;6298872;28;20120;-70
2021/11/11 03:04:54;;;;;;;34.75;12.25;;;;;;;-0.36;100.00;101463.31;6282322;28;20041;-70
2021/11/11 03:07:55;;;;;;;35.45;13.05;;;;;;;-0.36;100.00;101453.91;6298879;28;20041;-70
2021/11/11 03:10:56;;;;;;;54.85;12.70;;;;;;;-0.48;100.00;101457.25;6298870;28;20447;-70
2021/11/11 03:13:57;;;;;;;31.98;11.98;;;;;;;-0.60;100.00;101459.72;6281283;28;20471;-71
2021/11/11 03:16:58;;;;;;;24.98;11.70;;;;;;;-0.74;100.00;101454.50;6299245;28;20040;-70
2021/11/11 03:19:59;;;;;;;35.08;10.93;;;;;;;-0.64;100.00;101452.84;6299075;28;20048;-70
2021/11/11 03:23:01;;;;;;;25.40;11.23;;;;;;;-0.70;100.00;101457.94;6281115;28;20120;-70
2021/11/11 03:26:02;;;;;;;29.70;12.43;;;;;;;-0.70;100.00;101453.69;6279172;28;20415;-71
2021/11/11 03:29:03;;;;;;;49.08;11.95;;;;;;;-0.83;100.00;101450.16;6297786;28;20544;-70
2021/11/11 03:32:05;;;;;;;59.90;12.43;;;;;;;-0.76;100.00;101457.88;6291969;28;20049;-70
2021/11/11 03:35:06;;;;;;;45.90;12.25;;;;;;;-0.66;100.00;101457.13;6273731;28;20068;-70
2021/11/11 03:38:08;;;;;;;43.10;12.25;;;;;;;-0.70;100.00;101453.69;6306280;28;20056;-70
2021/11/11 03:41:09;;;;;;;49.58;11.93;;;;;;;-0.44;100.00;101458.13;6299130;28;20037;-70
2021/11/11 03:44:10;;;;;;;55.03;11.70;;;;;;;-0.42;100.00;101456.44;6297967;28;20045;-70
2021/11/11 03:47:11;;;;;;;32.08;12.25;;;;;;;-0.45;100.00;101444.47;6287098;28;20045;-71
2021/11/11 03:50:14;;;;;;;60.55;12.77;;;;;;;-1.69;100.00;101449.31;6274463;28;20084;-70
2021/11/11 03:53:15;;;;;;;72.80;13.10;;;;;;;-1.89;100.00;101455.91;6272701;28;20053;-71
2021/11/11 03:56:16;;;;;;;34.08;11.13;;;;;;;-2.00;100.00;101450.63;6272911;28;20068;-70
2021/11/11 03:59:17;;;;;;;25.80;11.73;;;;;;;-2.18;100.00;101451.25;6272762;28;20175;-70
2021/11/11 04:02:23;;;;;;;45.55;13.13;;;;;;;-2.20;100.00;101439.28;6273817;28;20537;-70
2021/11/11 04:05:23;;;;;;;44.97;11.65;;;;;;;-2.03;100.00;101437.81;6272676;28;20048;-70
2021/11/11 04:08:24;;;;;;;36.08;10.95;;;;;;;-1.15;100.00;101437.06;6250905;28;20045;-71
2021/11/11 04:11:29;;;;;;;54.00;11.48;;;;;;;-0.63;100.00;101434.06;6298131;28;20048;-70
2021/11/11 04:14:31;;;;;;;70.90;11.57;;;;;;;-0.49;100.00;101427.34;6276531;28;20047;-70
2021/11/11 04:17:32;;;;;;;;;;;;;;;-0.29;100.00;101439.41;6296883;28;20207;-70
2021/11/11 04:20:33;;;;;;;54.60;15.63;;;;;;;-0.22;100.00;101420.66;6292596;28;19932;-71
2021/11/11 04:23:34;;;;;;;67.75;17.85;;;;;;;-0.08;100.00;101431.00;6273268;28;20072;-71
2021/11/11 04:26:42;;;;;;;57.92;15.13;;;;;;;-0.10;100.00;101427.56;6272047;28;20041;-70
2021/11/11 04:29:52;;;;;;;66.43;17.55;;;;;;;-0.05;100.00;101431.84;6273253;28;20499;-71
2021/11/11 04:32:53;;;;;;;73.10;13.27;;;;;;;-0.21;100.00;101432.63;6256770;28;20049;-71
2021/11/11 04:36:16;;;;;;;74.75;12.93;;;;;;;-0.08;100.00;101420.72;6288376;28;20064;-70
2021/11/11 05:05:22;;;;;;;56.58;13.23;;;;;;;-0.06;100.00;101413.91;6296947;28;20056;-70
2021/11/11 05:08:23;;;;;;;47.28;14.73;;;;;;;-0.17;100.00;101410.41;6281134;28;20396;-70
2021/11/11 05:11:24;;;;;;;62.28;14.90;;;;;;;-0.42;100.00;101416.25;6255011;28;20076;-71
2021/11/11 05:14:24;;;;;;;38.33;12.95;;;;;;;-0.49;100.00;101416.22;6271201;28;20060;-71
2021/11/11 05:17:25;;;;;;;44.83;13.23;;;;;;;-0.72;100.00;101413.50;6254412;28;20064;-70
2021/11/11 05:20:26;;;;;;;62.28;14.45;;;;;;;-1.78;100.00;101415.09;6272103;28;20383;-70
2021/11/11 05:23:28;;;;;;;51.63;13.52;;;;;;;-1.82;100.00;101417.59;6270934;28;20132;-70
2021/11/11 05:26:29;;;;;;;48.40;12.07;;;;;;;-1.12;100.00;101418.31;6272112;28;20045;-70
2021/11/11 05:29:31;;;;;;;41.38;13.13;;;;;;;-0.59;100.00;101414.47;6272090;28;20053;-71
2021/11/11 05:32:33;;;;;;;40.75;13.85;;;;;;;-0.38;100.00;101426.53;6254577;28;20041;-70
2021/11/11 05:35:34;;;;;;;44.17;13.97;;;;;;;-0.29;100.00;101426.59;6271709;28;20045;-70
2021/11/11 05:38:35;;;;;;;53.28;13.07;;;;;;;-0.17;100.00;101425.81;6254166;28;20795;-70
2021/11/11 05:41:37;;;;;;;63.58;12.43;;;;;;;-0.12;100.00;101427.56;6271888;28;20120;-70
2021/11/11 05:44:38;;;;;;;92.43;14.68;;;;;;;-0.04;100.00;101431.00;6270726;28;20045;-70
2021/11/11 05:47:40;;;;;;;42.40;12.32;;;;;;;-0.01;100.00;101425.03;6255480;28;20041;-70
2021/11/11 05:50:40;;;;;;;80.97;14.82;;;;;;;-0.02;100.00;101437.00;6277048;28;20045;-70
2021/11/11 05:53:41;;;;;;;39.17;13.07;;;;;;;-1.24;100.00;101427.59;6275349;28;20465;-70
2021/11/11 05:56:42;;;;;;;85.97;14.18;;;;;;;-1.53;100.00;101431.56;6271605;28;20056;-70
2021/11/11 05:59:43;;;;;;;86.38;14.30;;;;;;;-1.71;100.00;101430.53;6278236;28;20049;-70
2021/11/11 06:02:45;;;;;;;116.03;15.43;;;;;;;-1.77;100.00;101432.13;6262191;28;20063;-70
2021/11/11 06:05:45;;;;;;;58.20;14.13;;;;;;;-1.75;100.00;101443.25;6296290;28;20049;-70
2021/11/11 06:08:46;;;;;;;64.63;13.32;;;;;;;-1.82;100.00;101445.75;6289122;28;20041;-70
2021/11/11 06:11:47;;;;;;;57.13;14.73;;;;;;;-1.89;100.00;101448.22;6260974;28;20048;-70
2021/11/11 06:14:48;;;;;;;48.10;14.10;;;;;;;-1.92;100.00;101437.94;6271423;28;20045;-70
2021/11/11 06:17:53;;;;;;;60.10;15.27;;;;;;;-1.84;100.00;101437.19;6271093;28;20528;-70
2021/11/11 06:20:59;;;;;;;65.90;15.73;;;;;;;-1.79;100.00;101439.81;6274987;28;20483;-70
2021/11/11 06:24:00;;;;;;;67.10;17.33;;;;;;;-1.83;100.00;101431.25;6259203;28;20041;-70
2021/11/11 06:27:02;;;;;;;55.30;17.63;;;;;;;-1.75;100.00;101443.25;6241875;28;20399;-70
2021/11/11 06:30:05;;;;;;;61.83;16.43;;;;;;;-1.71;100.00;101439.88;6257384;28;20507;-71
2021/11/11 06:33:06;;;;;;;59.30;15.75;;;;;;;-1.74;100.00;101445.00;6286701;28;20668;-70
2021/11/11 06:36:07;;;;;;;49.45;15.88;;;;;;;-1.82;100.00;101445.75;6281270;28;20041;-70
2021/11/11 06:39:08;;;;;;;64.93;15.45;;;;;;;-1.78;100.00;101445.78;6284930;28;20086;-72
2021/11/11 06:42:08;;;;;;;56.80;17.55;;;;;;;-1.75;100.00;101443.25;6282174;28;20060;-70
2021/11/11 06:45:11;;;;;;;71.72;16.58;;;;;;;-1.62;100.00;101448.53;6299126;28;20069;-70
2021/11/11 06:48:13;;;;;;;63.97;18.83;;;;;;;-1.56;100.00;101452.03;6295804;28;20040;-70
2021/11/11 06:51:14;;;;;;;74.05;17.95;;;;;;;-1.56;100.00;101446.91;6298035;28;20094;-70
2021/11/11 06:54:16;;;;;;;42.75;19.25;;;;;;;-1.45;100.00;101448.72;6281231;28;20149;-70
2021/11/11 06:57:16;;;;;;;81.18;19.25;;;;;;;-1.33;100.00;101442.88;6297757;28;20048;-71
2021/11/11 07:00:18;;;;;;;83.13;20.77;;;;;;;-1.26;100.00;101439.50;6281373;28;20047;-70
2021/11/11 07:03:19;;;;;;;95.75;25.48;;;;;;;-1.14;100.00;101440.50;6281269;28;20483;-71
2021/11/11 07:06:20;;;;;;;84.57;23.80;;;;;;;-1.12;100.00;101442.22;6297688;28;20127;-70
2021/11/11 07:09:21;;;;;;;57.92;23.70;;;;;;;-1.08;100.00;101437.97;6297710;28;20044;-71
2021/11/11 07:12:22;;;;;;;72.25;24.38;;;;;;;-0.99;100.00;101432.94;6298754;28;20187;-70
2021/11/11 07:15:22;;;;;;;90.28;24.27;;;;;;;-0.89;100.00;101434.72;6297359;28;20076;-71
2021/11/11 07:18:23;;;;;;;65.30;21.02;;;;;;;-0.69;100.00;101441.72;6297359;28;20127;-70
2021/11/11 07:21:24;;;;;;;71.60;24.60;;;;;;;-0.65;100.00;101433.22;6280682;28;20076;-71
2021/11/11 07:24:25;;;;;;;56.00;19.98;;;;;;;-0.63;100.00;101434.06;6298456;28;20049;-71
2021/11/11 07:27:26;;;;;;;81.65;19.70;;;;;;;0.54;100.00;101437.22;6298383;28;20085;-71
2021/11/11 07:30:27;;;;;;;50.40;20.75;;;;;;;0.93;100.00;101436.41;6296929;28;20138;-72
2021/11/11 07:33:28;;;;;;;52.63;20.48;;;;;;;1.03;100.00;101437.28;6298380;28;20149;-71
2021/11/11 07:36:31;;;;;;;39.35;18.45;;;;;;;1.50;100.00;101428.66;6297036;28;20093;-74
2021/11/11 07:39:33;;;;;;;44.97;17.02;;;;;;;1.33;100.00;101430.41;6298320;28;20041;-74
2021/11/11 07:42:34;;;;;;;49.85;20.98;;;;;;;0.65;100.00;101422.66;6298345;28;20064;-74
2021/11/11 07:45:35;;;;;;;36.20;17.55;;;;;;;1.27;100.00;101428.69;6298174;28;20087;-74
2021/11/11 07:48:36;;;;;;;44.15;20.40;;;;;;;1.35;100.00;101424.41;6280308;28;20055;-74
2021/11/11 07:51:37;;;;;;;55.25;23.88;;;;;;;1.33;100.00;101427.84;6286899;28;20384;-74
2021/11/11 07:54:38;;;;;;;71.82;26.48;;;;;;;1.36;100.00;101426.13;6288157;28;20041;-74
2021/11/11 07:57:40;;;;;;;67.88;26.27;;;;;;;1.44;100.00;101422.66;6282658;28;20459;-74
2021/11/11 08:00:41;;;;;;;62.08;26.50;;;;;;;1.60;100.00;101427.78;6289286;28;20049;-74
2021/11/11 08:03:43;;;;;;;64.10;24.20;;;;;;;1.57;100.00;101426.94;6274861;28;20068;-74
2021/11/11 08:06:44;;;;;;;49.22;24.92;;;;;;;2.19;100.00;101432.75;6296541;28;20089;-74
2021/11/11 08:09:46;;;;;;;53.22;25.67;;;;;;;2.24;100.00;101441.31;6295543;28;20479;-74
2021/11/11 08:12:47;;;;;;;86.85;23.52;;;;;;;2.35;100.00;101442.13;6293599;28;20048;-74
2021/11/11 08:15:48;;;;;;;91.18;21.63;;;;;;;2.39;100.00;101448.13;6271518;28;20037;-75
2021/11/11 08:18:49;;;;;;;74.75;21.15;;;;;;;2.03;100.00;101441.41;6254747;28;20048;-74
2021/11/11 08:21:50;;;;;;;48.40;19.88;;;;;;;1.95;100.00;101444.00;6272628;28;20041;-75
2021/11/11 08:24:51;;;;;;;44.75;21.20;;;;;;;2.52;100.00;101428.31;6290232;28;20091;-75
2021/11/11 08:27:53;;;;;;;51.30;23.63;;;;;;;3.05;100.00;101431.34;6295991;28;20045;-75
2021/11/11 08:30:53;;;;;;;47.05;23.92;;;;;;;3.38;100.00;101420.75;6295921;28;20052;-75
2021/11/11 08:33:54;;;;;;;47.30;24.50;;;;;;;2.57;100.00;101416.22;6295839;28;20060;-75
2021/11/11 08:36:55;;;;;;;53.95;26.45;;;;;;;2.70;100.00;101411.84;6296962;28;20040;-75
2021/11/11 08:39:56;;;;;;;48.22;24.90;;;;;;;3.02;100.00;101417.63;6296335;28;20491;-75
2021/11/11 08:42:59;;;;;;;49.45;24.83;;;;;;;4.39;100.00;101403.25;6295537;28;20044;-75
2021/11/11 08:46:00;;;;;;;48.72;24.42;;;;;;;3.56;100.00;101417.16;6279845;28;20476;-71
2021/11/11 08:49:01;;;;;;;47.70;24.30;;;;;;;3.43;100.00;101420.72;6276143;28;20037;-72
2021/11/11 08:52:02;;;;;;;45.72;25.33;;;;;;;4.67;100.00;101409.75;6270451;28;20134;-71
2021/11/11 08:55:03;;;;;;;53.20;26.42;;;;;;;5.31;100.00;101408.69;6254097;28;20060;-71
2021/11/11 08:58:07;;;;;;;52.70;27.58;;;;;;;4.43;100.00;101404.06;6253817;28;20045;-71
2021/11/11 09:01:08;;;;;;;53.15;28.05;;;;;;;4.34;100.00;101402.44;6270415;28;20044;-71
2021/11/11 09:04:09;;;;;;;66.53;31.23;;;;;;;4.50;100.00;101410.84;6270379;28;20120;-75
2021/11/11 09:07:10;;;;;;;103.53;38.83;;;;;;;4.52;100.00;101408.25;6270725;28;20052;-75
2021/11/11 09:10:15;;;;;;;88.88;36.17;;;;;;;4.56;100.00;101402.16;6270340;28;20156;-75
2021/11/11 09:13:16;;;;;;;60.67;30.55;;;;;;;4.71;100.00;101398.47;6271383;28;20506;-75
2021/11/11 09:16:17;;;;;;;59.05;29.40;;;;;;;5.01;100.00;101392.81;6271310;28;20123;-75
2021/11/11 09:19:18;;;;;;;49.97;28.13;;;;;;;5.25;100.00;101396.72;6287796;28;20116;-75
2021/11/11 09:22:19;;;;;;;46.17;26.42;;;;;;;6.57;100.00;101388.06;6296153;28;20115;-75
2021/11/11 09:25:22;;;;;;;48.10;26.60;;;;;;;5.89;100.00;101391.22;6278814;28;20037;-75
2021/11/11 09:28:23;;;;;;;53.28;27.40;;;;;;;5.44;100.00;101389.47;6290656;28;20442;-75
2021/11/11 09:31:24;;;;;;;47.05;24.95;;;;;;;5.50;100.00;101393.69;6275986;28;20056;-75
2021/11/11 09:34:25;;;;;;;43.10;25.52;;;;;;;5.69;100.00;101383.00;6269937;28;20044;-75
2021/11/11 09:37:26;;;;;;;43.92;23.98;;;;;;;6.85;100.00;101380.44;6253158;28;20541;-75
2021/11/11 09:40:27;;;;;;;47.20;25.25;;;;;;;7.49;98.01;101379.69;6291240;28;20040;-75
2021/11/11 09:43:28;;;;;;;44.33;25.87;;;;;;;7.73;96.79;101372.97;6294590;28;20044;-75
2021/11/11 09:46:29;;;;;;;44.53;25.67;;;;;;;7.90;94.38;101369.88;6253059;28;20041;-75
2021/11/11 09:49:30;;;;;;;42.00;23.73;;;;;;;6.77;100.00;101374.59;6286149;28;20551;-75
2021/11/11 09:52:31;;;;;;;37.65;22.08;;;;;;;6.52;100.00;101370.88;6271936;28;20056;-75
2021/11/11 09:58:51;;;;;;;36.75;21.20;;;;;;;8.13;91.43;101345.81;6275667;28;20041;-73
2021/11/11 10:01:54;;;;;;;36.70;21.95;;;;;;;8.20;93.03;101349.94;6275959;28;20037;-73
2021/11/11 10:04:55;;;;;;;40.60;23.23;;;;;;;8.33;93.39;101339.16;6281577;28;20127;-74
2021/11/11 10:07:56;;;;;;;42.80;22.17;;;;;;;9.13;90.90;101334.81;6283194;28;20037;-73
2021/11/11 10:10:56;;;;;;;34.95;20.15;;;;;;;8.12;99.68;101338.06;6280348;28;20055;-73
2021/11/11 10:14:08;;;;;;;34.85;17.70;;;;;;;8.20;97.62;101326.53;6300218;28;20102;-73
2021/11/11 10:17:12;;;;;;;31.70;17.92;;;;;;;9.52;87.01;101328.25;6300054;28;20094;-73
2021/11/11 10:20:12;;;;;;;31.77;18.10;;;;;;;9.62;82.28;101311.38;6299912;28;20044;-73
2021/11/11 10:23:23;;;;;;;30.92;17.38;;;;;;;8.62;93.58;101313.09;6299979;28;20085;-74
2021/11/11 10:26:38;;;;;;;32.35;18.65;;;;;;;8.64;96.45;101307.84;6298689;28;20087;-73
2021/11/11 10:29:47;;;;;;;26.90;16.60;;;;;;;8.82;94.68;101304.63;6299754;28;20045;-73
2021/11/11 10:32:52;;;;;;;24.25;15.27;;;;;;;8.96;89.27;101291.16;6299716;28;20040;-74
2021/11/11 10:35:56;;;;;;;25.35;15.57;;;;;;;9.22;89.08;101297.19;6298438;28;20096;-73
2021/11/11 10:39:17;;;;;;;26.48;16.75;;;;;;;9.26;88.30;101284.00;6299417;28;20040;-73
2021/11/11 10:42:21;;;;;;;21.88;14.07;;;;;;;9.50;89.12;101288.38;6299425;28;20046;-74
2021/11/11 10:45:26;;;;;;;20.40;13.75;;;;;;;10.60;78.70;101273.63;6299447;28;20043;-73
2021/11/11 10:48:27;;;;;;;21.75;13.45;;;;;;;11.15;78.18;101266.97;6299147;28;20063;-73
2021/11/11 10:51:27;;;;;;;25.55;14.57;;;;;;;11.52;74.24;101258.34;6299213;28;20430;-74
2021/11/11 10:54:28;;;;;;;21.95;13.13;;;;;;;11.12;70.54;101247.06;6297852;28;20132;-73
2021/11/11 10:57:39;;;;;;;21.50;13.00;;;;;;;9.82;80.65;101253.28;6297837;28;20048;-74
2021/11/11 11:00:53;;;;;;;21.95;12.68;;;;;;;9.85;83.23;101261.00;6289584;28;20484;-73
2021/11/11 11:03:57;;;;;;;16.92;11.32;;;;;;;9.76;77.31;101257.00;6276663;28;20060;-70
2021/11/11 11:07:18;;;;;;;15.68;10.98;;;;;;;10.86;72.55;101245.59;6299098;28;20037;-70
2021/11/11 11:10:19;;;;;;;17.33;10.43;;;;;;;11.20;69.65;101251.94;6299053;28;20059;-70
2021/11/11 11:13:27;;;;;;;15.27;10.83;;;;;;;11.14;69.58;101236.53;6278594;28;20045;-70
2021/11/11 11:16:31;;;;;;;15.70;10.00;;;;;;;11.14;69.40;101239.16;6306695;28;20063;-70
2021/11/11 11:36:37;;;;;;;13.13;8.88;;;;;;;10.41;71.19;101218.75;6343847;27;20369;-72
2021/11/11 11:40:13;;;;;;;11.48;7.65;;;;;;;10.40;71.25;101216.25;6342425;28;20044;-69
2021/11/11 11:43:29;;;;;;;12.73;8.45;;;;;;;10.30;75.01;101209.72;6343407;28;20048;-72
2021/11/11 11:46:31;;;;;;;12.35;8.07;;;;;;;10.22;70.88;101202.16;6340341;28;20121;-71
2021/11/11 11:49:34;;;;;;;11.77;7.60;;;;;;;10.16;72.07;101198.03;6320732;28;20036;-72
2021/11/11 11:52:38;;;;;;;12.20;8.55;;;;;;;10.35;73.17;101192.09;6337501;28;20040;-74
2021/11/11 11:55:51;;;;;;;12.43;8.25;;;;;;;10.33;71.74;101189.53;6342002;28;20047;-72
2021/11/11 12:08:44;;;;;;;12.30;8.50;;;;;;;10.75;76.27;101172.97;6319670;28;20146;-73
2021/11/11 12:15:32;;;;;;;12.25;8.68;;;;;;;11.04;74.91;101160.38;6342556;28;20043;-69
2021/11/11 12:39:01;;;;;;;17.00;10.23;;;;;;;11.27;70.99;101120.13;6325225;28;20060;-73
2021/11/11 12:42:06;;;;;;;17.13;10.38;;;;;;;11.03;70.26;101120.34;6325324;28;20101;-73
2021/11/11 12:45:43;;;;;;;18.67;10.85;;;;;;;10.78;72.39;101109.31;6323979;28;20071;-73
2021/11/11 12:48:46;;;;;;;18.25;11.38;;;;;;;10.66;74.65;101102.88;6274087;28;20049;-73
2021/11/11 12:52:12;;;;;;;17.15;11.70;;;;;;;10.44;73.46;101103.84;6290921;28;20090;-73
2021/11/11 12:55:18;;;;;;;16.52;11.10;;;;;;;10.39;75.47;101105.78;6324252;28;20094;-70
2021/11/11 12:58:34;;;;;;;20.30;11.43;;;;;;;10.32;75.21;101104.38;6324339;28;20430;-70
2021/11/11 13:01:55;;;;;;;17.58;12.13;;;;;;;10.31;76.21;101107.03;6323300;28;20506;-70
2021/11/11 13:04:58;;;;;;;18.98;11.60;;;;;;;10.30;76.00;101102.75;6324142;28;20044;-70
2021/11/11 13:07:59;;;;;;;18.42;11.75;;;;;;;10.34;76.28;101099.94;6306338;28;20044;-70
2021/11/11 13:11:05;;;;;;;21.23;12.07;;;;;;;10.42;77.85;101097.00;6312440;28;20047;-70
2021/11/11 13:14:14;;;;;;;18.23;11.88;;;;;;;10.53;76.60;101097.38;6320188;28;20385;-70
2021/11/11 13:17:16;;;;;;;21.63;12.20;;;;;;;10.53;75.78;101101.75;6322688;28;20040;-70
2021/11/11 13:20:53;;;;;;;18.75;12.18;;;;;;;10.60;73.11;101092.72;6322478;28;20044;-70
2021/11/11 13:24:12;;;;;;;23.90;11.88;;;;;;;10.59;74.70;101088.44;6323449;28;20160;-70
2021/11/11 13:58:59;;;;;;;13.00;8.95;;;;;;;9.91;72.26;101067.84;6307431;28;20032;-70
2021/11/11 15:45:39;;;;;;;34.60;20.55;;;;;;;6.42;100.00;101049.63;6295249;28;20094;-71
2021/11/11 16:02:04;;;;;;;35.40;21.77;;;;;;;6.13;100.00;101044.38;6296042;28;20040;-74
2021/11/11 16:28:10;;;;;;;54.85;27.60;;;;;;;5.49;100.00;101052.84;6300271;28;20135;-74
2021/11/11 16:31:11;;;;;;;45.22;26.40;;;;;;;5.47;100.00;101053.78;6299254;28;20037;-74
2021/11/11 16:34:12;;;;;;;47.50;26.13;;;;;;;5.44;100.00;101052.13;6299826;28;20052;-74
2021/11/11 16:37:13;;;;;;;45.97;27.25;;;;;;;5.44;100.00;101054.72;6282482;28;20052;-74
2021/11/11 16:40:17;;;;;;;48.53;27.92;;;;;;;5.36;100.00;101057.47;6298871;28;20036;-73
2021/11/11 16:43:18;;;;;;;51.17;28.73;;;;;;;5.38;100.00;101067.78;6299953;28;20048;-73
2021/11/11 16:46:19;;;;;;;60.58;32.45;;;;;;;5.33;100.00;101054.09;6298698;28;20476;-73
2021/11/11 16:49:20;;;;;;;53.42;31.75;;;;;;;5.33;100.00;101061.84;6299771;28;20041;-73
2021/11/11 16:52:21;;;;;;;55.80;31.90;;;;;;;5.29;100.00;101058.47;6300009;28;20076;-73
2021/11/11 16:55:22;;;;;;;60.30;33.53;;;;;;;5.26;100.00;101055.97;6281887;28;20557;-73
2021/11/11 16:58:23;;;;;;;57.50;33.65;;;;;;;5.21;100.00;101048.31;6298604;28;20448;-73
2021/11/11 17:01:24;;;;;;;59.55;32.75;;;;;;;5.14;100.00;101045.91;6299965;28;20040;-73
2021/11/11 17:04:25;;;;;;;60.72;33.92;;;;;;;5.08;100.00;101046.03;6298073;28;20036;-69
2021/11/11 17:07:26;;;;;;;57.08;31.30;;;;;;;5.07;100.00;101050.38;6298989;28;20119;-70
2021/11/11 17:10:26;;;;;;;62.55;36.45;;;;;;;4.97;100.00;101054.03;6297731;28;20076;-70
2021/11/11 17:13:27;;;;;;;63.42;38.28;;;;;;;4.95;100.00;101055.81;6297530;28;20044;-69
2021/11/11 17:16:29;;;;;;;77.65;40.88;;;;;;;4.91;100.00;101060.19;6297549;28;20040;-71
2021/11/11 17:19:30;;;;;;;65.07;38.57;;;;;;;4.85;100.00;101063.75;6298151;28;20041;-73
2021/11/11 17:22:37;;;;;;;65.15;35.92;;;;;;;4.88;100.00;101065.44;6297939;28;20051;-73
2021/11/11 17:25:42;;;;;;;61.45;33.95;;;;;;;4.79;100.00;101050.97;6299163;28;20048;-73
2021/11/11 17:28:43;;;;;;;50.95;30.80;;;;;;;4.70;100.00;101053.75;6297867;28;20044;-73
2021/11/11 17:31:44;;;;;;;52.23;31.10;;;;;;;4.76;100.00;101058.78;6299227;28;20451;-73
2021/11/11 17:34:45;;;;;;;62.67;31.85;;;;;;;4.69;100.00;101053.78;6297329;28;20135;-73
2021/11/11 17:37:46;;;;;;;57.53;32.22;;;;;;;4.64;100.00;101056.47;6297766;28;20036;-73
2021/11/11 17:40:51;;;;;;;50.58;30.10;;;;;;;4.55;100.00;101054.03;6298751;28;20047;-73
2021/11/11 17:43:53;;;;;;;57.00;34.28;;;;;;;4.37;100.00;101048.38;6298472;28;20048;-69
2021/11/11 17:46:59;;;;;;;60.30;34.27;;;;;;;4.33;100.00;101038.97;6298036;28;20399;-70
2021/11/11 17:50:04;;;;;;;58.60;32.88;;;;;;;4.26;100.00;101039.97;6297975;28;20285;-69
2021/11/11 17:53:08;;;;;;;58.60;32.67;;;;;;;4.20;100.00;101051.28;6298189;28;20032;-70
2021/11/11 17:56:09;;;;;;;51.72;31.05;;;;;;;4.17;100.00;101053.91;6297629;28;20071;-69
2021/11/11 17:59:10;;;;;;;58.50;30.65;;;;;;;4.09;100.00;101049.78;6279968;28;20488;-69